Weather at Aspen-Pitkin Co/Sardy Field

Public forecast

Using degrees Fahrenheit for public forecast. Weather courtesy of forecast.io.

Current aviation weather report (METAR) for Aspen-Pitkin Co/Sardy Field

Retrieved 2020/09/27 21:53 UTC (44 minutes ago):

KASE 272153Z 34012G24KT 10SM CLR 17/M03 A3020 RMK AO2 PK WND 32027/2123 SLP123 T01671033

Aviation forecast (TAF) for Aspen-Pitkin Co/Sardy Field

Forecast is more than 6 hours old.

Retrieved 2020/09/27 12:24 UTC (10 hours ago):

TAF KASE 271121Z 2712/2812 21006KT P6SM FEW100 FM271800 32010G22KT P6SM SKC FM280200 23006KT P6SM FEW250